Time,TemperatureF,DewpointF,PressureIn,WindDirection,WindDirectionDegrees,WindSpeedMPH,WindSpeedGustMPH,Humidity,HourlyPrecipIn,Conditions,Clouds,dailyrainin,SoftwareType,DateUTC
2013-01-04 00:29:00,36.7,36.0,30.28,North,357,0.0,1.0,98,0.00,,,0.00,weatherlink.com 1.10,2013-01-04 05:29:00,
2013-01-04 00:44:00,36.2,36.0,30.27,North,357,0.0,0.0,98,0.00,,,0.00,weatherlink.com 1.10,2013-01-04 05:44:00,
2013-01-04 00:59:00,35.8,35.0,30.27,North,357,0.0,1.0,98,0.00,,,0.00,weatherlink.com 1.10,2013-01-04 05:59:00,
2013-01-04 01:14:00,35.4,35.0,30.27,North,356,0.0,0.0,98,0.00,,,0.00,weatherlink.com 1.10,2013-01-04 06:14:00,
2013-01-04 01:29:00,35.2,35.0,30.27,North,356,0.0,1.0,98,0.00,,,0.00,weatherlink.com 1.10,2013-01-04 06:29:00,
2013-01-04 01:44:00,35.0,35.0,30.27,North,356,0.0,1.0,98,0.00,,,0.00,weatherlink.com 1.10,2013-01-04 06:44:00,
2013-01-04 01:59:00,34.7,34.0,30.29,North,356,0.0,0.0,98,0.00,,,0.00,weatherlink.com 1.10,2013-01-04 06:59:00,
2013-01-04 02:14:00,34.5,34.0,30.29,North,356,0.0,1.0,98,0.00,,,0.00,weatherlink.com 1.10,2013-01-04 07:14:00,
2013-01-04 02:29:00,34.5,34.0,30.30,North,356,0.0,1.0,99,0.00,,,0.00,weatherlink.com 1.10,2013-01-04 07:29:00,
2013-01-04 02:44:00,34.5,34.0,30.30,North,356,0.0,1.0,99,0.00,,,0.00,weatherlink.com 1.10,2013-01-04 07:44:00,
2013-01-04 02:59:00,34.2,34.0,30.30,North,356,0.0,0.0,99,0.00,,,0.00,weatherlink.com 1.10,2013-01-04 07:59:00,
2013-01-04 03:14:00,34.0,34.0,30.31,North,354,0.0,1.0,99,0.00,,,0.00,weatherlink.com 1.10,2013-01-04 08:14:00,
2013-01-04 03:29:00,33.7,34.0,30.31,North,354,0.0,1.0,99,0.00,,,0.00,weatherlink.com 1.10,2013-01-04 08:29:00,
2013-01-04 03:44:00,33.6,33.0,30.30,North,354,0.0,1.0,99,0.00,,,0.00,weatherlink.com 1.10,2013-01-04 08:44:00,
2013-01-04 03:59:00,33.4,33.0,30.30,North,354,0.0,1.0,99,0.00,,,0.00,weatherlink.com 1.10,2013-01-04 08:59:00,
2013-01-04 04:14:00,33.2,33.0,30.30,North,354,0.0,0.0,99,0.00,,,0.00,weatherlink.com 1.10,2013-01-04 09:14:00,
2013-01-04 04:29:00,32.8,33.0,30.30,North,354,0.0,1.0,99,0.00,,,0.00,weatherlink.com 1.10,2013-01-04 09:29:00,
2013-01-04 04:44:00,32.5,32.0,30.30,North,354,0.0,0.0,99,0.01,,,0.01,weatherlink.com 1.10,2013-01-04 09:44:00,
2013-01-04 04:59:00,32.1,32.0,30.30,North,354,0.0,1.0,99,0.01,,,0.01,weatherlink.com 1.10,2013-01-04 09:59:00,
2013-01-04 05:14:00,31.7,32.0,30.30,North,354,0.0,0.0,99,0.01,,,0.01,weatherlink.com 1.10,2013-01-04 10:14:00,
2013-01-04 05:29:00,31.4,31.0,30.30,North,354,0.0,0.0,99,0.01,,,0.01,weatherlink.com 1.10,2013-01-04 10:29:00,
2013-01-04 05:44:00,31.2,31.0,30.30,North,354,0.0,0.0,99,0.00,,,0.01,weatherlink.com 1.10,2013-01-04 10:44:00,
2013-01-04 06:00:00,31.1,31.0,30.30,North,354,0.0,0.0,99,0.00,,,0.01,weatherlink.com 1.10,2013-01-04 11:00:00,
2013-01-04 06:15:00,30.9,31.0,30.30,North,354,0.0,1.0,99,0.00,,,0.01,weatherlink.com 1.10,2013-01-04 11:15:00,
2013-01-04 06:30:00,30.8,31.0,30.31,North,354,0.0,1.0,99,0.00,,,0.01,weatherlink.com 1.10,2013-01-04 11:30:00,
2013-01-04 06:45:00,30.8,31.0,30.31,North,354,0.0,0.0,99,0.00,,,0.01,weatherlink.com 1.10,2013-01-04 11:45:00,
2013-01-04 07:00:00,30.8,31.0,30.32,SW,224,0.0,1.0,99,0.00,,,0.01,weatherlink.com 1.10,2013-01-04 12:00:00,
2013-01-04 07:15:00,31.1,31.0,30.32,SW,224,0.0,0.0,99,0.00,,,0.01,weatherlink.com 1.10,2013-01-04 12:15:00,
2013-01-04 07:30:00,30.9,31.0,30.33,SW,224,0.0,0.0,99,0.00,,,0.01,weatherlink.com 1.10,2013-01-04 12:30:00,
2013-01-04 07:45:00,31.1,31.0,30.34,SW,224,0.0,0.0,99,0.00,,,0.01,weatherlink.com 1.10,2013-01-04 12:45:00,
2013-01-04 08:00:00,31.4,31.0,30.34,SW,224,0.0,0.0,99,0.00,,,0.01,weatherlink.com 1.10,2013-01-04 13:00:00,
2013-01-04 08:15:00,32.1,32.0,30.34,West,264,0.0,1.0,99,0.00,,,0.01,weatherlink.com 1.10,2013-01-04 13:15:00,
2013-01-04 08:30:00,33.9,34.0,30.35,SW,231,0.0,2.0,99,0.00,,,0.01,weatherlink.com 1.10,2013-01-04 13:30:00,
2013-01-04 08:45:00,35.5,36.0,30.35,WSW,254,0.0,1.0,100,0.00,,,0.01,weatherlink.com 1.10,2013-01-04 13:45:00,
2013-01-04 09:00:00,37.0,37.0,30.36,WSW,255,0.0,1.0,100,0.00,,,0.01,weatherlink.com 1.10,2013-01-04 14:00:00,
2013-01-04 09:15:00,38.6,39.0,30.36,SSW,207,0.0,2.0,100,0.00,,,0.01,weatherlink.com 1.10,2013-01-04 14:15:00,
2013-01-04 09:30:00,39.7,40.0,30.36,SSE,163,0.0,2.0,100,0.00,,,0.01,weatherlink.com 1.10,2013-01-04 14:30:00,
2013-01-04 09:45:00,40.9,41.0,30.36,NNW,342,0.0,1.0,100,0.00,,,0.01,weatherlink.com 1.10,2013-01-04 14:45:00,
2013-01-04 10:00:00,41.7,42.0,30.36,East,96,1.0,3.0,100,0.00,,,0.01,weatherlink.com 1.10,2013-01-04 15:00:00,
2013-01-04 10:15:00,42.0,42.0,30.36,West,264,1.0,3.0,100,0.00,,,0.01,weatherlink.com 1.10,2013-01-04 15:15:00,
2013-01-04 10:30:00,43.2,42.0,30.35,South,190,0.0,4.0,97,0.00,,,0.01,weatherlink.com 1.10,2013-01-04 15:30:00,
2013-01-04 10:45:00,45.0,41.0,30.35,ENE,75,2.0,2.0,87,0.00,,,0.01,weatherlink.com 1.10,2013-01-04 15:45:00,
2013-01-04 11:00:00,46.2,39.0,30.35,NW,305,0.0,4.0,76,0.00,,,0.01,weatherlink.com 1.10,2013-01-04 16:00:00,
2013-01-04 11:15:00,47.5,39.0,30.34,West,259,0.0,5.0,73,0.00,,,0.01,weatherlink.com 1.10,2013-01-04 16:15:00,
2013-01-04 11:30:00,48.6,39.0,30.34,SSW,203,0.0,2.0,70,0.00,,,0.01,weatherlink.com 1.10,2013-01-04 16:30:00,
2013-01-04 11:45:00,48.8,38.0,30.34,ESE,107,3.0,7.0,66,0.00,,,0.01,weatherlink.com 1.10,2013-01-04 16:45:00,
2013-01-04 12:00:00,48.5,38.0,30.33,ENE,71,3.0,4.0,68,0.00,,,0.01,weatherlink.com 1.10,2013-01-04 17:00:00,
2013-01-04 12:15:00,48.9,38.0,30.32,East,81,1.0,5.0,66,0.00,,,0.01,weatherlink.com 1.10,2013-01-04 17:15:00,
2013-01-04 12:31:00,48.6,38.0,30.31,SE,132,0.0,5.0,67,0.00,,,0.01,weatherlink.com 1.10,2013-01-04 17:31:00,
2013-01-04 12:45:00,49.0,38.0,30.31,East,79,1.0,4.0,66,0.00,,,0.01,weatherlink.com 1.10,2013-01-04 17:45:00,
2013-01-04 13:01:00,49.4,37.0,30.30,East,86,2.0,5.0,63,0.00,,,0.01,weatherlink.com 1.10,2013-01-04 18:01:00,
2013-01-04 13:16:00,50.0,38.0,30.30,SSW,207,1.0,3.0,63,0.00,,,0.01,weatherlink.com 1.10,2013-01-04 18:16:00,
2013-01-04 13:31:00,49.7,37.0,30.29,SE,139,1.0,4.0,62,0.00,,,0.01,weatherlink.com 1.10,2013-01-04 18:31:00,
2013-01-04 13:46:00,51.3,39.0,30.29,SSW,210,2.0,2.0,63,0.00,,,0.01,weatherlink.com 1.10,2013-01-04 18:46:00,
2013-01-04 14:01:00,50.6,38.0,30.28,SW,231,2.0,5.0,62,0.00,,,0.01,weatherlink.com 1.10,2013-01-04 19:01:00,
2013-01-04 14:16:00,51.5,38.0,30.27,WSW,249,2.0,4.0,60,0.00,,,0.01,weatherlink.com 1.10,2013-01-04 19:16:00,
2013-01-04 14:31:00,52.1,38.0,30.27,ESE,108,1.0,3.0,59,0.00,,,0.01,weatherlink.com 1.10,2013-01-04 19:31:00,
2013-01-04 14:46:00,51.2,38.0,30.27,SE,138,0.0,5.0,60,0.00,,,0.01,weatherlink.com 1.10,2013-01-04 19:46:00,
2013-01-04 15:01:00,52.1,38.0,30.28,South,187,0.0,3.0,60,0.00,,,0.01,weatherlink.com 1.10,2013-01-04 20:01:00,
2013-01-04 15:16:00,52.8,36.0,30.27,SW,225,1.0,4.0,54,0.00,,,0.01,weatherlink.com 1.10,2013-01-04 20:16:00,
2013-01-04 15:31:00,53.3,37.0,30.27,West,275,0.0,2.0,54,0.00,,,0.01,weatherlink.com 1.10,2013-01-04 20:31:00,
2013-01-04 15:46:00,53.2,36.0,30.28,SW,228,0.0,2.0,53,0.00,,,0.01,weatherlink.com 1.10,2013-01-04 20:46:00,
2013-01-04 16:01:00,53.3,38.0,30.27,SW,221,0.0,1.0,56,0.00,,,0.01,weatherlink.com 1.10,2013-01-04 21:01:00,
2013-01-04 16:15:00,51.8,36.0,30.26,WNW,297,0.0,1.0,56,0.00,,,0.01,weatherlink.com 1.10,2013-01-04 21:15:00,
2013-01-04 16:45:00,49.4,40.0,30.27,WSW,240,0.0,0.0,69,0.00,,,0.01,weatherlink.com 1.10,2013-01-04 21:45:00,
2013-01-04 17:00:00,47.9,40.0,30.27,WSW,240,0.0,0.0,75,0.00,,,0.01,weatherlink.com 1.10,2013-01-04 22:00:00,
2013-01-04 17:15:00,45.9,39.0,30.27,WSW,240,0.0,0.0,77,0.00,,,0.01,weatherlink.com 1.10,2013-01-04 22:15:00,
2013-01-04 17:30:00,44.1,39.0,30.27,WSW,240,0.0,0.0,82,0.00,,,0.01,weatherlink.com 1.10,2013-01-04 22:30:00,
2013-01-04 17:45:00,42.8,39.0,30.27,SSW,204,0.0,1.0,86,0.00,,,0.01,weatherlink.com 1.10,2013-01-04 22:45:00,
2013-01-04 18:00:00,41.6,39.0,30.29,SSW,206,0.0,1.0,89,0.00,,,0.01,weatherlink.com 1.10,2013-01-04 23:00:00,
2013-01-04 18:15:00,40.8,38.0,30.30,SSW,205,0.0,0.0,90,0.00,,,0.01,weatherlink.com 1.10,2013-01-04 23:15:00,
2013-01-04 18:30:00,40.0,38.0,30.30,SSW,205,0.0,0.0,91,0.00,,,0.01,weatherlink.com 1.10,2013-01-04 23:30:00,
2013-01-04 18:45:00,39.4,37.0,30.30,SSW,205,0.0,0.0,92,0.00,,,0.01,weatherlink.com 1.10,2013-01-04 23:45:00,
2013-01-04 19:00:00,39.0,37.0,30.31,SSW,205,0.0,0.0,93,0.00,,,0.01,weatherlink.com 1.10,2013-01-05 00:00:00,
2013-01-04 19:15:00,38.7,37.0,30.31,SSW,205,0.0,0.0,93,0.00,,,0.01,weatherlink.com 1.10,2013-01-05 00:15:00,
2013-01-04 19:30:00,37.9,36.0,30.31,SSW,205,0.0,0.0,93,0.00,,,0.01,weatherlink.com 1.10,2013-01-05 00:30:00,
2013-01-04 19:45:00,37.4,36.0,30.30,SSW,205,0.0,0.0,94,0.00,,,0.01,weatherlink.com 1.10,2013-01-05 00:45:00,
2013-01-04 20:00:00,37.0,36.0,30.31,SSW,205,0.0,0.0,94,0.00,,,0.01,weatherlink.com 1.10,2013-01-05 01:00:00,
2013-01-04 20:15:00,36.7,35.0,30.32,SSW,205,0.0,0.0,95,0.00,,,0.01,weatherlink.com 1.10,2013-01-05 01:15:00,
2013-01-04 20:31:00,36.3,35.0,30.33,SSW,205,0.0,0.0,95,0.00,,,0.01,weatherlink.com 1.10,2013-01-05 01:31:00,
2013-01-04 20:45:00,35.9,35.0,30.33,SSW,205,0.0,0.0,95,0.00,,,0.01,weatherlink.com 1.10,2013-01-05 01:45:00,
2013-01-04 21:00:00,35.4,34.0,30.33,SSW,205,0.0,0.0,95,0.00,,,0.01,weatherlink.com 1.10,2013-01-05 02:00:00,
2013-01-04 21:15:00,35.3,34.0,30.33,SSW,205,0.0,0.0,96,0.00,,,0.01,weatherlink.com 1.10,2013-01-05 02:15:00,
2013-01-04 21:30:00,35.1,34.0,30.33,SSW,205,0.0,0.0,96,0.00,,,0.01,weatherlink.com 1.10,2013-01-05 02:30:00,
2013-01-04 21:45:00,34.7,34.0,30.33,SSW,205,0.0,0.0,96,0.00,,,0.01,weatherlink.com 1.10,2013-01-05 02:45:00,
2013-01-04 22:00:00,34.4,33.0,30.34,SSW,205,0.0,0.0,96,0.00,,,0.01,weatherlink.com 1.10,2013-01-05 03:00:00,
2013-01-04 22:15:00,34.1,33.0,30.34,SSW,205,0.0,0.0,96,0.00,,,0.01,weatherlink.com 1.10,2013-01-05 03:15:00,
2013-01-04 22:30:00,33.9,33.0,30.33,SSW,205,0.0,0.0,96,0.00,,,0.01,weatherlink.com 1.10,2013-01-05 03:30:00,
2013-01-04 22:45:00,33.6,33.0,30.33,SSW,205,0.0,0.0,97,0.00,,,0.01,weatherlink.com 1.10,2013-01-05 03:45:00,
2013-01-04 23:00:00,33.6,33.0,30.33,SSW,205,0.0,0.0,97,0.00,,,0.01,weatherlink.com 1.10,2013-01-05 04:00:00,
2013-01-04 23:15:00,33.5,33.0,30.33,SSW,205,0.0,0.0,97,0.00,,,0.01,weatherlink.com 1.10,2013-01-05 04:15:00,
2013-01-04 23:30:00,33.4,33.0,30.33,SSW,205,0.0,0.0,97,0.00,,,0.01,weatherlink.com 1.10,2013-01-05 04:30:00,
2013-01-04 23:45:00,32.9,32.0,30.34,SSW,205,0.0,0.0,97,0.00,,,0.01,weatherlink.com 1.10,2013-01-05 04:45:00,